Time;durP1;ratioP1;P1;durP2;ratioP2;P2;SDS_P1;SDS_P2;PMS_P1;PMS_P2;Temp;Humidity;BMP_temperature;BMP_pressure;BME280_temperature;BME280_humidity;BME280_pressure;Samples;Min_cycle;Max_cycle;Signal;HPM_P1;HPM_P2
2022/09/25 00:00:34;;;;;;;3.23;3.03;;;22.60;42.30;;;;;;4999249;28;20461;-59
2022/09/25 00:02:59;;;;;;;3.20;3.00;;;22.60;42.40;;;;;;5002064;28;20499;-57
2022/09/25 00:05:25;;;;;;;3.10;2.90;;;22.60;42.30;;;;;;5002242;28;20293;-57
2022/09/25 00:07:50;;;;;;;2.80;2.60;;;22.60;42.30;;;;;;4999969;28;20282;-57
2022/09/25 00:10:16;;;;;;;3.40;3.20;;;22.60;42.30;;;;;;4997778;28;20258;-60
2022/09/25 00:12:41;;;;;;;2.80;2.70;;;22.60;42.30;;;;;;5000629;28;20271;-58
2022/09/25 00:15:07;;;;;;;2.90;2.80;;;22.60;42.40;;;;;;5003571;28;20254;-57
2022/09/25 00:17:33;;;;;;;3.10;2.90;;;22.60;42.30;;;;;;5000223;28;20228;-60
2022/09/25 00:19:59;;;;;;;3.23;3.03;;;22.60;42.30;;;;;;5001350;28;20322;-58
2022/09/25 00:22:25;;;;;;;3.60;3.30;;;22.60;42.40;;;;;;4997531;28;20320;-59
2022/09/25 00:24:51;;;;;;;3.50;3.30;;;22.60;42.30;;;;;;5000882;28;20451;-59
2022/09/25 00:27:18;;;;;;;2.77;2.57;;;22.60;42.40;;;;;;4998662;28;20468;-62
2022/09/25 00:29:44;;;;;;;3.53;3.23;;;22.60;42.40;;;;;;4999548;28;20227;-57
2022/09/25 00:32:10;;;;;;;3.07;2.87;;;22.60;42.30;;;;;;4998580;28;20475;-63
2022/09/25 00:34:37;;;;;;;3.10;2.90;;;22.60;42.30;;;;;;5013705;28;20487;-57
2022/09/25 00:37:03;;;;;;;2.43;2.33;;;22.60;42.30;;;;;;5000591;28;20850;-60
2022/09/25 00:39:30;;;;;;;3.67;3.47;;;22.60;42.30;;;;;;4999626;28;20460;-63
2022/09/25 00:41:56;;;;;;;3.13;2.93;;;22.60;42.30;;;;;;4997655;28;20473;-58
2022/09/25 00:45:00;;;;;;;3.30;3.10;;;22.60;42.30;;;;;;4998148;28;20569;-57
2022/09/25 00:47:56;;;;;;;2.90;2.70;;;22.60;42.40;;;;;;5001182;28;20235;-59
2022/09/25 00:50:25;;;;;;;2.73;2.53;;;22.50;42.30;;;;;;4999457;28;20511;-64
2022/09/25 00:52:53;;;;;;;2.67;2.57;;;22.60;42.50;;;;;;4999178;28;20464;-62
2022/09/25 00:55:22;;;;;;;3.07;2.87;;;22.60;42.50;;;;;;4978280;28;22563;-60
2022/09/25 00:57:50;;;;;;;3.13;2.93;;;22.50;42.30;;;;;;4998664;28;21069;-57
2022/09/25 01:00:16;;;;;;;3.43;3.13;;;22.50;42.30;;;;;;5001468;28;20453;-58
2022/09/25 01:02:46;;;;;;;3.00;2.80;;;22.60;42.40;;;;;;4999213;28;20853;-61
2022/09/25 01:05:15;;;;;;;2.30;2.20;;;22.50;42.30;;;;;;4997689;28;20232;-61
2022/09/25 01:07:44;;;;;;;2.93;2.73;;;22.50;42.30;;;;;;5001379;28;20465;-60
2022/09/25 01:10:10;;;;;;;2.83;2.63;;;22.50;42.30;;;;;;4999831;28;20524;-58
2022/09/25 01:12:40;;;;;;;2.97;2.77;;;22.50;42.40;;;;;;4997822;28;20480;-59
2022/09/25 01:15:07;;;;;;;2.40;2.30;;;22.50;42.30;;;;;;5000315;28;20445;-58
2022/09/25 01:17:37;;;;;;;2.53;2.33;;;22.60;42.50;;;;;;5000111;28;20488;-59
2022/09/25 01:20:06;;;;;;;2.80;2.70;;;22.50;42.30;;;;;;4999596;28;20833;-61
2022/09/25 01:22:48;;;;;;;3.00;2.80;;;22.50;42.30;;;;;;4999601;28;20480;-60
2022/09/25 01:25:43;;;;;;;3.20;3.00;;;22.60;42.50;;;;;;4995777;28;20817;-63
2022/09/25 01:28:28;;;;;;;3.20;2.90;;;22.50;42.30;;;;;;5000142;28;20508;-56
2022/09/25 01:31:01;;;;;;;3.80;2.60;;;22.50;42.40;;;;;;4997599;28;20815;-63
2022/09/25 01:33:35;;;;;;;2.67;2.57;;;22.50;42.30;;;;;;5002481;28;20491;-57
2022/09/25 01:36:50;;;;;;;3.93;2.50;;;22.50;42.30;;;;;;4999001;28;20463;-57
2022/09/25 01:39:22;;;;;;;2.67;2.47;;;22.50;42.30;;;;;;4978943;28;20444;-56
2022/09/25 01:41:55;;;;;;;2.40;2.30;;;22.50;42.30;;;;;;4999563;28;20465;-57
2022/09/25 01:44:36;;;;;;;3.27;2.97;;;22.50;42.40;;;;;;4995157;28;20848;-56
2022/09/25 01:47:09;;;;;;;2.63;2.43;;;22.50;42.40;;;;;;4995379;28;20472;-58
2022/09/25 01:49:43;;;;;;;3.03;2.83;;;22.50;42.40;;;;;;5001572;28;20449;-65
2022/09/25 01:52:16;;;;;;;2.70;2.50;;;22.50;42.40;;;;;;4997852;28;20493;-58
2022/09/25 01:54:53;;;;;;;3.20;3.00;;;22.50;42.40;;;;;;4993577;28;20548;-59
2022/09/25 01:57:30;;;;;;;2.87;2.67;;;22.50;42.30;;;;;;4995915;28;20488;-59
2022/09/25 02:00:05;;;;;;;2.43;2.23;;;22.50;42.50;;;;;;4996840;28;20544;-63
2022/09/25 02:02:54;;;;;;;2.53;2.33;;;22.50;42.30;;;;;;4996908;28;20461;-58
2022/09/25 02:05:34;;;;;;;2.87;2.67;;;22.50;42.30;;;;;;4994292;28;20461;-67
2022/09/25 02:08:04;;;;;;;2.20;2.10;;;22.50;42.40;;;;;;4998148;28;20509;-57
2022/09/25 02:10:36;;;;;;;2.50;2.40;;;22.50;42.40;;;;;;4979045;28;20477;-62
2022/09/25 02:13:12;;;;;;;2.10;2.00;;;22.50;42.40;;;;;;4995679;28;20846;-58
2022/09/25 02:15:42;;;;;;;2.30;2.10;;;22.50;42.40;;;;;;4997949;28;20592;-60
2022/09/25 02:21:37;;;;;;;2.60;2.43;;;22.50;42.40;;;;;;4996392;28;20537;-57
2022/09/25 02:24:05;;;;;;;2.87;2.67;;;22.50;42.50;;;;;;4995606;28;20464;-59
2022/09/25 02:26:33;;;;;;;2.70;2.50;;;22.50;42.50;;;;;;4995856;28;20473;-59
2022/09/25 02:28:59;;;;;;;2.30;2.20;;;22.50;42.50;;;;;;4998263;28;20979;-59
2022/09/25 02:31:30;;;;;;;2.13;2.00;;;22.50;42.50;;;;;;4998286;28;20457;-64
2022/09/25 02:33:57;;;;;;;2.10;1.67;;;22.50;42.50;;;;;;5012038;28;20603;-58
2022/09/25 02:36:22;;;;;;;2.37;2.27;;;22.50;42.50;;;;;;4996180;28;20476;-61
2022/09/25 02:38:50;;;;;;;2.23;2.13;;;22.50;42.50;;;;;;4997000;28;20986;-57
2022/09/25 02:41:50;;;;;;;3.10;2.47;;;22.50;42.50;;;;;;4995951;28;20267;-64
2022/09/25 02:44:42;;;;;;;2.47;2.30;;;22.50;42.50;;;;;;4996736;28;20487;-57
2022/09/25 02:47:33;;;;;;;2.10;2.00;;;22.50;42.50;;;;;;4997491;28;20971;-62
2022/09/25 02:50:15;;;;;;;2.27;2.17;;;22.50;42.50;;;;;;4995968;28;20445;-67
2022/09/25 02:53:10;;;;;;;1.97;1.87;;;22.50;42.60;;;;;;4992309;28;20469;-59
2022/09/25 02:55:39;;;;;;;2.63;2.40;;;22.50;42.60;;;;;;4997445;28;20456;-62
2022/09/25 02:58:16;;;;;;;1.93;1.80;;;22.50;42.70;;;;;;5009666;28;20518;-59
2022/09/25 03:00:46;;;;;;;2.00;1.90;;;22.50;42.50;;;;;;4994080;28;21129;-56
2022/09/25 03:03:15;;;;;;;1.97;1.87;;;22.50;42.50;;;;;;4995597;28;20465;-58
2022/09/25 03:05:41;;;;;;;1.90;1.80;;;22.50;42.60;;;;;;4994105;28;20864;-57
2022/09/25 03:10:52;;;;;;;2.33;2.20;;;22.50;42.60;;;;;;4996466;28;20452;-57
2022/09/25 03:13:30;;;;;;;1.90;1.80;;;22.50;42.60;;;;;;4997724;28;20456;-57
2022/09/25 03:16:03;;;;;;;2.10;2.00;;;22.50;43.30;;;;;;4998480;28;20480;-57
2022/09/25 03:18:30;;;;;;;1.83;1.73;;;22.50;42.50;;;;;;4999719;28;20788;-59
2022/09/25 03:20:56;;;;;;;2.33;2.23;;;22.50;42.60;;;;;;4997545;28;20458;-63
2022/09/25 03:23:22;;;;;;;2.30;2.20;;;22.50;42.60;;;;;;4995832;28;20532;-64
2022/09/25 03:25:48;;;;;;;2.30;2.10;;;22.50;42.60;;;;;;4995723;28;20540;-56
2022/09/25 03:28:14;;;;;;;2.40;2.30;;;22.50;42.50;;;;;;4999905;28;20895;-56
2022/09/25 03:30:40;;;;;;;2.30;2.20;;;22.50;42.60;;;;;;4997019;28;20669;-59
2022/09/25 03:33:10;;;;;;;1.80;1.67;;;22.50;42.60;;;;;;5000944;28;20266;-60
2022/09/25 03:35:39;;;;;;;2.00;1.90;;;22.50;42.50;;;;;;5002213;28;20490;-58
2022/09/25 03:38:07;;;;;;;1.80;1.70;;;22.50;42.60;;;;;;4998259;28;20451;-56
2022/09/25 03:40:33;;;;;;;1.83;1.73;;;22.50;42.50;;;;;;4998299;28;20500;-59
2022/09/25 03:42:58;;;;;;;2.10;2.00;;;22.50;42.50;;;;;;5000598;28;20891;-59
2022/09/25 03:45:24;;;;;;;2.07;1.80;;;22.50;42.60;;;;;;4984691;28;20230;-57
2022/09/25 03:47:49;;;;;;;2.00;1.90;;;22.40;42.50;;;;;;4999285;28;20564;-63
2022/09/25 03:50:15;;;;;;;2.30;2.20;;;22.50;42.60;;;;;;4996930;28;20548;-57
2022/09/25 03:52:41;;;;;;;1.43;1.33;;;22.50;42.60;;;;;;4999544;28;20231;-56
2022/09/25 03:55:07;;;;;;;1.70;1.60;;;22.50;42.60;;;;;;5002986;28;20227;-57
2022/09/25 03:57:33;;;;;;;2.37;2.20;;;22.40;42.50;;;;;;5000167;28;20592;-64
2022/09/25 04:00:00;;;;;;;2.40;2.00;;;22.50;42.60;;;;;;4996107;28;20446;-58
2022/09/25 04:02:27;;;;;;;1.73;1.63;;;22.50;42.60;;;;;;4997400;28;20768;-56
2022/09/25 04:04:54;;;;;;;1.67;1.57;;;22.50;42.60;;;;;;5015410;28;20896;-59
2022/09/25 04:07:20;;;;;;;1.63;1.53;;;22.50;42.60;;;;;;5001515;28;20446;-61
2022/09/25 04:09:46;;;;;;;1.80;1.70;;;22.40;42.50;;;;;;4997599;28;20451;-57
2022/09/25 04:12:12;;;;;;;2.00;1.90;;;22.50;42.50;;;;;;4997606;28;20535;-61
2022/09/25 04:14:37;;;;;;;1.87;1.77;;;22.50;42.60;;;;;;5000153;28;20866;-58
2022/09/25 04:17:03;;;;;;;1.63;1.53;;;22.50;42.60;;;;;;4999531;28;20270;-60
2022/09/25 04:19:29;;;;;;;2.00;1.90;;;22.50;42.60;;;;;;4999214;28;20231;-60
2022/09/25 04:21:54;;;;;;;1.70;1.60;;;22.50;42.60;;;;;;5004180;28;20270;-57
2022/09/25 04:27:04;;;;;;;1.60;1.50;;;22.50;42.60;;;;;;4983210;28;20689;-57
2022/09/25 04:29:31;;;;;;;1.60;1.50;;;22.50;42.60;;;;;;4999489;28;20456;-56
2022/09/25 04:34:40;;;;;;;1.60;1.50;;;22.50;42.60;;;;;;5002507;28;20500;-56
2022/09/25 04:37:06;;;;;;;1.70;1.60;;;22.50;42.60;;;;;;5005811;28;21266;-61
2022/09/25 04:39:31;;;;;;;1.60;1.50;;;22.40;42.50;;;;;;5001558;28;20568;-57
2022/09/25 04:41:57;;;;;;;1.80;1.70;;;22.50;42.60;;;;;;4998542;28;20239;-57
2022/09/25 04:44:22;;;;;;;1.93;1.83;;;22.50;42.60;;;;;;4998746;28;20319;-63
2022/09/25 04:46:48;;;;;;;1.93;1.83;;;22.50;42.60;;;;;;4999307;28;20610;-60
2022/09/25 04:49:13;;;;;;;1.67;1.57;;;22.40;42.50;;;;;;4997689;28;20227;-56
2022/09/25 04:51:39;;;;;;;1.60;1.50;;;22.50;42.60;;;;;;4997667;28;20311;-56
2022/09/25 04:54:04;;;;;;;1.80;1.70;;;22.50;42.60;;;;;;4999453;28;20240;-59
2022/09/25 04:56:30;;;;;;;2.10;2.00;;;22.50;42.60;;;;;;4995123;28;20306;-61
2022/09/25 04:58:56;;;;;;;1.40;1.30;;;22.50;42.60;;;;;;4996243;28;20275;-58
2022/09/25 05:01:21;;;;;;;2.03;1.93;;;22.50;42.60;;;;;;4999349;28;20290;-60
2022/09/25 05:03:52;;;;;;;1.60;1.50;;;22.50;42.60;;;;;;4996518;28;20224;-56
2022/09/25 05:06:18;;;;;;;1.60;1.50;;;22.40;42.50;;;;;;4998209;28;20227;-58
2022/09/25 05:08:45;;;;;;;1.60;1.50;;;22.50;43.30;;;;;;4999660;28;23500;-57
2022/09/25 05:11:12;;;;;;;2.47;1.50;;;22.40;42.50;;;;;;4997564;28;20903;-57
2022/09/25 05:13:37;;;;;;;1.57;1.47;;;22.50;42.50;;;;;;4996413;28;20485;-63
2022/09/25 05:16:03;;;;;;;1.73;1.63;;;22.50;42.50;;;;;;4998545;28;20473;-57
2022/09/25 05:18:29;;;;;;;1.60;1.50;;;22.50;42.50;;;;;;4999582;28;20223;-58
2022/09/25 05:20:55;;;;;;;1.70;1.60;;;22.50;42.50;;;;;;4998793;28;20575;-59
2022/09/25 05:23:21;;;;;;;1.50;1.40;;;22.50;42.50;;;;;;4996007;28;20231;-61
2022/09/25 05:25:53;;;;;;;1.50;1.40;;;22.50;42.50;;;;;;4994691;28;20495;-58
2022/09/25 05:28:19;;;;;;;1.70;1.60;;;22.50;42.50;;;;;;4998267;28;20596;-66
2022/09/25 05:30:45;;;;;;;1.60;1.50;;;22.50;42.50;;;;;;4997114;28;20441;-60
2022/09/25 05:33:10;;;;;;;1.30;1.20;;;22.50;42.50;;;;;;4985264;28;20227;-57
2022/09/25 05:35:36;;;;;;;2.27;1.93;;;22.50;42.50;;;;;;4996603;28;20216;-57
2022/09/25 05:38:01;;;;;;;1.60;1.40;;;22.50;42.50;;;;;;4997020;28;20215;-59
2022/09/25 05:40:27;;;;;;;2.10;1.60;;;22.50;42.50;;;;;;4998845;28;20224;-62
2022/09/25 05:42:54;;;;;;;1.50;1.40;;;22.50;42.50;;;;;;4998201;28;20915;-62
2022/09/25 05:45:22;;;;;;;1.90;1.37;;;22.50;42.50;;;;;;5000934;28;20677;-57
2022/09/25 05:47:47;;;;;;;1.53;1.43;;;22.50;42.50;;;;;;4999158;28;20942;-64
2022/09/25 05:50:15;;;;;;;1.60;1.50;;;22.50;42.50;;;;;;5003233;28;20568;-61
2022/09/25 05:52:41;;;;;;;1.50;1.40;;;22.50;42.50;;;;;;4996286;28;20314;-56
2022/09/25 05:55:09;;;;;;;1.70;1.60;;;22.50;42.50;;;;;;5000187;28;20445;-58
2022/09/25 05:57:36;;;;;;;1.70;1.60;;;22.50;42.50;;;;;;4996108;28;20449;-66
2022/09/25 06:00:04;;;;;;;1.33;1.23;;;22.50;42.40;;;;;;4994836;28;20968;-59
2022/09/25 06:02:29;;;;;;;1.53;1.43;;;22.50;42.50;;;;;;4989360;28;20485;-58
2022/09/25 06:04:55;;;;;;;1.80;1.70;;;22.50;42.40;;;;;;4999118;28;20843;-60
2022/09/25 06:07:20;;;;;;;1.53;1.43;;;22.50;42.30;;;;;;4998006;28;20227;-62
2022/09/25 06:09:46;;;;;;;1.50;1.40;;;22.50;42.40;;;;;;4997177;28;20227;-57
2022/09/25 06:12:11;;;;;;;1.50;1.40;;;22.50;42.40;;;;;;5011106;28;20239;-56
2022/09/25 06:14:37;;;;;;;1.40;1.30;;;22.50;42.30;;;;;;5000831;28;20223;-59
2022/09/25 06:17:03;;;;;;;1.57;1.47;;;22.50;42.30;;;;;;4995416;28;20790;-57
2022/09/25 06:19:29;;;;;;;1.50;1.40;;;22.50;42.30;;;;;;4997160;28;20220;-57
2022/09/25 06:21:56;;;;;;;1.53;1.43;;;22.50;42.40;;;;;;4994518;28;20271;-58
2022/09/25 06:24:22;;;;;;;1.97;1.27;;;22.50;42.30;;;;;;4999788;28;20231;-59
2022/09/25 06:26:48;;;;;;;2.30;1.40;;;22.50;42.40;;;;;;4993956;28;20485;-58
2022/09/25 06:29:13;;;;;;;1.40;1.30;;;22.50;42.40;;;;;;4995967;28;20454;-62
2022/09/25 06:31:39;;;;;;;1.40;1.30;;;22.50;42.30;;;;;;5001030;28;20308;-59
2022/09/25 06:34:05;;;;;;;1.60;1.27;;;22.50;42.30;;;;;;4981868;28;20222;-58
2022/09/25 06:36:31;;;;;;;1.37;1.27;;;22.50;42.40;;;;;;4994118;28;20247;-57
2022/09/25 06:38:56;;;;;;;1.53;1.40;;;22.50;42.30;;;;;;4998058;28;20224;-57
2022/09/25 06:41:23;;;;;;;1.70;1.60;;;22.50;42.30;;;;;;4994816;28;20841;-59
2022/09/25 06:43:50;;;;;;;1.40;1.30;;;22.50;42.30;;;;;;4994628;28;20737;-59
2022/09/25 06:46:17;;;;;;;2.70;1.23;;;22.50;42.30;;;;;;4997839;28;21087;-58
2022/09/25 06:48:43;;;;;;;1.40;1.30;;;22.50;42.30;;;;;;4994205;28;20504;-57
2022/09/25 06:51:09;;;;;;;1.30;1.20;;;22.50;42.30;;;;;;4997734;28;20464;-57
2022/09/25 06:53:34;;;;;;;1.40;1.30;;;22.50;42.30;;;;;;4998420;28;20471;-59
2022/09/25 06:56:00;;;;;;;1.20;1.10;;;22.50;42.30;;;;;;4992852;28;20235;-65
2022/09/25 06:58:27;;;;;;;1.70;1.60;;;22.50;42.30;;;;;;4990035;28;20580;-59
2022/09/25 07:00:54;;;;;;;1.33;1.23;;;22.50;42.30;;;;;;4992538;28;20464;-60
2022/09/25 07:06:07;;;;;;;1.40;1.30;;;22.50;42.30;;;;;;4991403;28;20515;-57
2022/09/25 07:08:33;;;;;;;1.40;1.30;;;22.50;42.30;;;;;;4991656;28;20465;-57
2022/09/25 07:11:00;;;;;;;1.43;1.30;;;22.50;42.30;;;;;;4992656;28;20469;-56
2022/09/25 07:13:28;;;;;;;1.83;1.43;;;22.50;42.20;;;;;;4991893;28;20231;-59
2022/09/25 07:15:59;;;;;;;1.63;1.53;;;22.50;42.20;;;;;;4987574;28;20456;-60
2022/09/25 07:18:26;;;;;;;1.50;1.40;;;22.50;42.20;;;;;;4986979;28;20547;-60
2022/09/25 07:20:52;;;;;;;1.37;1.27;;;22.50;42.30;;;;;;4974485;28;20865;-62
2022/09/25 07:23:20;;;;;;;1.30;1.20;;;22.50;42.20;;;;;;4990570;28;20826;-57
2022/09/25 07:25:46;;;;;;;1.50;1.40;;;22.50;42.20;;;;;;4993014;28;20461;-61
2022/09/25 07:28:13;;;;;;;1.40;1.30;;;22.50;42.20;;;;;;4994660;28;20465;-57
2022/09/25 07:30:40;;;;;;;1.83;1.30;;;22.50;42.30;;;;;;4991148;28;20480;-59
2022/09/25 07:33:05;;;;;;;1.30;1.20;;;22.50;42.20;;;;;;4991850;28;20493;-60
2022/09/25 07:35:33;;;;;;;1.50;1.40;;;22.60;42.30;;;;;;4994569;28;20468;-60
2022/09/25 07:37:59;;;;;;;1.40;1.20;;;22.60;43.10;;;;;;4992739;28;20227;-57
2022/09/25 07:40:27;;;;;;;1.73;1.30;;;22.60;43.10;;;;;;4990687;28;20461;-65
2022/09/25 07:43:03;;;;;;;2.50;1.20;;;22.60;42.30;;;;;;4996819;28;20227;-62
2022/09/25 07:45:29;;;;;;;2.37;1.30;;;22.60;42.30;;;;;;4990258;28;20472;-60
2022/09/25 07:48:02;;;;;;;1.20;1.10;;;22.60;42.30;;;;;;4990510;28;21042;-57
2022/09/25 07:50:31;;;;;;;3.10;1.10;;;22.60;42.30;;;;;;4991177;28;20465;-61
2022/09/25 07:52:57;;;;;;;4.60;1.17;;;22.60;42.30;;;;;;4989859;28;20445;-59
2022/09/25 07:55:24;;;;;;;1.90;1.20;;;22.60;42.30;;;;;;4995716;28;20474;-59
2022/09/25 07:57:50;;;;;;;2.20;1.40;;;22.60;42.30;;;;;;4987750;28;20514;-59
2022/09/25 08:00:17;;;;;;;1.97;1.50;;;22.60;42.30;;;;;;4988466;28;20945;-58
2022/09/25 08:02:42;;;;;;;5.63;1.63;;;22.60;42.30;;;;;;4992608;28;20500;-58
2022/09/25 08:05:08;;;;;;;1.60;1.50;;;22.60;42.30;;;;;;4990607;28;20646;-60
2022/09/25 08:07:34;;;;;;;3.80;1.40;;;22.60;42.30;;;;;;4993098;28;20242;-57
2022/09/25 08:09:59;;;;;;;2.07;1.23;;;22.50;42.20;;;;;;4994017;28;20556;-62
2022/09/25 08:12:25;;;;;;;1.77;1.30;;;22.60;42.30;;;;;;4992507;28;20222;-60
2022/09/25 08:14:51;;;;;;;1.60;1.50;;;22.50;42.20;;;;;;4991066;28;20222;-59
2022/09/25 08:17:18;;;;;;;1.70;1.40;;;22.50;42.20;;;;;;4994079;28;20456;-58
2022/09/25 08:19:44;;;;;;;1.60;1.50;;;22.50;42.20;;;;;;4994192;28;20472;-64
2022/09/25 08:22:10;;;;;;;1.13;1.03;;;22.60;42.20;;;;;;4996344;28;20564;-59
2022/09/25 08:24:36;;;;;;;1.87;1.17;;;22.60;42.30;;;;;;4995151;28;20559;-59
2022/09/25 08:27:03;;;;;;;1.73;1.30;;;22.50;42.20;;;;;;4999962;28;20246;-58
2022/09/25 08:29:29;;;;;;;1.60;1.50;;;22.60;42.30;;;;;;4999076;28;20465;-61
2022/09/25 08:31:55;;;;;;;1.53;1.30;;;22.60;42.30;;;;;;4994322;28;20497;-60
2022/09/25 08:34:21;;;;;;;2.77;1.20;;;22.60;42.30;;;;;;4994478;28;20495;-62
2022/09/25 08:36:48;;;;;;;1.77;1.47;;;22.60;42.20;;;;;;4999500;28;20220;-64
2022/09/25 08:39:14;;;;;;;1.40;1.30;;;22.60;42.30;;;;;;4996558;28;20836;-59
2022/09/25 08:41:54;;;;;;;3.83;1.30;;;22.60;42.20;;;;;;4994297;28;20491;-59
2022/09/25 08:44:39;;;;;;;1.93;1.20;;;22.60;42.20;;;;;;4994433;28;20246;-59
2022/09/25 08:50:08;;;;;;;1.23;1.13;;;22.60;42.30;;;;;;4995408;28;20568;-59
2022/09/25 08:52:35;;;;;;;2.07;1.40;;;22.60;42.30;;;;;;4994436;28;20502;-58
2022/09/25 08:55:00;;;;;;;1.20;1.10;;;22.60;42.30;;;;;;4995446;28;20511;-59
2022/09/25 08:57:33;;;;;;;2.17;1.23;;;22.50;42.20;;;;;;4990696;28;20460;-61
2022/09/25 09:00:03;;;;;;;1.47;1.37;;;22.60;42.20;;;;;;4992884;28;20227;-59
2022/09/25 09:02:41;;;;;;;1.30;1.20;;;22.60;42.20;;;;;;4982173;28;20831;-58
2022/09/25 09:05:19;;;;;;;1.40;1.30;;;22.60;42.20;;;;;;4994854;28;20788;-60
2022/09/25 09:07:52;;;;;;;1.30;1.20;;;22.60;42.30;;;;;;4999911;28;20463;-58
2022/09/25 09:10:47;;;;;;;1.40;1.30;;;22.60;42.30;;;;;;4994659;28;21159;-58
2022/09/25 09:13:40;;;;;;;1.40;1.30;;;22.60;42.30;;;;;;4993445;28;20822;-60
2022/09/25 09:16:20;;;;;;;1.30;1.10;;;22.60;42.30;;;;;;4995509;28;20449;-62
2022/09/25 09:18:46;;;;;;;1.30;1.20;;;22.60;42.20;;;;;;4997089;28;20567;-59
2022/09/25 09:21:37;;;;;;;3.70;2.13;;;22.60;42.30;;;;;;4994818;28;20467;-58
2022/09/25 09:24:21;;;;;;;1.80;1.30;;;22.60;42.20;;;;;;4995958;28;21150;-60
2022/09/25 09:26:56;;;;;;;1.83;1.23;;;22.60;42.20;;;;;;4994379;28;20457;-59
2022/09/25 09:30:01;;;;;;;1.50;1.40;;;22.60;42.20;;;;;;4992564;28;20525;-59
2022/09/25 09:32:49;;;;;;;2.07;1.27;;;22.60;42.20;;;;;;4993238;28;20543;-58
2022/09/25 09:35:46;;;;;;;1.20;1.10;;;22.60;42.20;;;;;;4995824;28;20444;-59
2022/09/25 09:38:30;;;;;;;1.23;1.13;;;22.60;42.30;;;;;;4993212;28;20469;-60
2022/09/25 09:41:27;;;;;;;1.33;1.23;;;22.60;42.20;;;;;;4994958;28;20561;-61
2022/09/25 09:43:53;;;;;;;1.40;1.30;;;22.60;42.30;;;;;;4996955;28;20468;-59
2022/09/25 09:46:58;;;;;;;1.50;1.40;;;22.60;42.30;;;;;;4996328;28;20457;-59
2022/09/25 09:49:23;;;;;;;1.10;1.00;;;22.60;42.30;;;;;;4992323;28;20258;-59
2022/09/25 09:52:02;;;;;;;1.40;1.30;;;22.60;42.30;;;;;;4995122;28;20485;-60
2022/09/25 09:54:52;;;;;;;1.20;1.10;;;22.60;42.20;;;;;;4996981;28;20270;-60
2022/09/25 09:57:24;;;;;;;2.40;1.43;;;22.60;42.20;;;;;;4996497;28;20458;-58
2022/09/25 10:00:14;;;;;;;2.13;1.57;;;22.60;42.20;;;;;;4992572;28;20461;-61
2022/09/25 10:02:43;;;;;;;1.30;1.20;;;22.60;42.20;;;;;;4992533;28;20480;-59
2022/09/25 10:05:21;;;;;;;1.20;1.10;;;22.60;43.00;;;;;;4991372;28;20472;-60
2022/09/25 10:07:48;;;;;;;1.20;1.10;;;22.60;42.20;;;;;;4991240;28;20491;-64
2022/09/25 10:10:15;;;;;;;1.30;1.17;;;22.60;42.30;;;;;;4995134;28;20472;-63
2022/09/25 10:12:52;;;;;;;1.20;1.10;;;22.60;42.20;;;;;;4994598;28;20465;-59
2022/09/25 10:15:37;;;;;;;1.40;1.30;;;22.60;42.10;;;;;;4990710;28;20555;-58
2022/09/25 10:18:03;;;;;;;1.20;1.10;;;22.60;42.20;;;;;;4994052;28;20496;-60
2022/09/25 10:20:39;;;;;;;1.17;1.07;;;22.60;42.20;;;;;;4997738;28;20468;-60
2022/09/25 10:23:13;;;;;;;1.20;1.10;;;22.70;42.20;;;;;;4996049;28;20714;-61
2022/09/25 10:25:39;;;;;;;1.30;1.20;;;22.60;42.10;;;;;;4997666;28;20558;-58
2022/09/25 10:28:23;;;;;;;1.00;1.00;;;22.70;42.20;;;;;;4996225;28;20595;-58
2022/09/25 10:30:51;;;;;;;1.30;1.20;;;22.70;42.20;;;;;;4996638;28;20666;-58
2022/09/25 10:33:24;;;;;;;1.50;1.10;;;22.60;42.10;;;;;;4994357;28;20460;-57
2022/09/25 10:35:53;;;;;;;1.20;1.10;;;22.70;42.20;;;;;;4998893;28;20453;-58
2022/09/25 10:38:31;;;;;;;1.53;1.20;;;22.70;42.20;;;;;;4992751;28;20548;-65
2022/09/25 10:41:05;;;;;;;1.53;1.00;;;22.60;42.10;;;;;;4995960;28;20454;-60
2022/09/25 10:43:31;;;;;;;1.20;1.10;;;22.60;42.10;;;;;;4993789;28;20473;-58
2022/09/25 10:46:14;;;;;;;5.57;1.47;;;22.70;42.20;;;;;;4993161;28;20910;-58
2022/09/25 10:51:25;;;;;;;1.20;1.10;;;22.70;42.20;;;;;;4994885;28;20456;-61
2022/09/25 10:54:09;;;;;;;1.60;1.50;;;22.60;42.10;;;;;;4996851;28;20468;-58
2022/09/25 10:56:37;;;;;;;1.30;1.20;;;22.60;42.00;;;;;;4994277;28;20487;-71
2022/09/25 10:59:19;;;;;;;3.13;1.10;;;22.70;42.20;;;;;;4994225;28;20959;-74
2022/09/25 11:01:46;;;;;;;1.20;1.10;;;22.60;42.00;;;;;;4995828;28;20556;-74
2022/09/25 11:04:29;;;;;;;1.20;1.03;;;22.60;42.10;;;;;;4997593;28;20461;-71
2022/09/25 11:06:58;;;;;;;1.30;1.00;;;22.70;42.10;;;;;;4995417;28;20578;-70
2022/09/25 11:09:26;;;;;;;1.30;1.10;;;22.60;42.00;;;;;;4998346;28;20461;-72
2022/09/25 11:12:05;;;;;;;1.30;1.20;;;22.60;42.00;;;;;;4996417;28;20470;-73
2022/09/25 11:14:34;;;;;;;1.20;1.10;;;22.70;42.10;;;;;;4995650;28;20462;-73
2022/09/25 11:17:04;;;;;;;1.50;1.30;;;22.60;41.90;;;;;;4997632;28;20547;-64
2022/09/25 11:19:37;;;;;;;3.90;0.93;;;22.60;41.90;;;;;;4995273;28;20512;-60
2022/09/25 11:22:24;;;;;;;2.13;1.20;;;22.70;42.00;;;;;;4996671;28;20482;-58
2022/09/25 11:25:13;;;;;;;1.20;1.10;;;22.70;42.00;;;;;;4993821;28;20461;-60
2022/09/25 11:28:17;;;;;;;1.00;1.00;;;22.70;42.00;;;;;;4993828;28;20446;-60
2022/09/25 11:30:50;;;;;;;1.30;1.20;;;22.60;41.80;;;;;;4938439;28;20472;-59
2022/09/25 11:33:31;;;;;;;1.33;1.23;;;22.70;42.00;;;;;;4995473;28;20459;-58
2022/09/25 11:36:23;;;;;;;1.37;1.10;;;22.70;42.00;;;;;;4990623;28;20465;-57
2022/09/25 11:41:47;;;;;;;3.07;1.10;;;22.70;41.70;;;;;;4993246;28;20527;-60
2022/09/25 11:44:37;;;;;;;1.70;1.10;;;22.70;41.60;;;;;;4993649;28;20551;-58
2022/09/25 11:47:20;;;;;;;2.40;1.13;;;22.70;41.60;;;;;;4996064;28;20499;-60
2022/09/25 11:49:52;;;;;;;1.17;1.00;;;22.70;41.60;;;;;;4992613;28;20987;-64
2022/09/25 11:52:43;;;;;;;1.17;1.07;;;22.70;41.60;;;;;;4995433;28;20560;-59
2022/09/25 11:55:26;;;;;;;1.33;1.23;;;22.70;41.60;;;;;;4992553;28;20465;-58
2022/09/25 11:58:13;;;;;;;1.20;1.10;;;22.70;41.60;;;;;;4997743;28;20549;-59
2022/09/25 12:00:59;;;;;;;1.23;1.13;;;22.70;41.60;;;;;;4993706;28;20457;-58
2022/09/25 12:03:43;;;;;;;1.17;1.00;;;22.70;41.60;;;;;;4993524;28;20513;-61
2022/09/25 12:06:47;;;;;;;1.80;1.00;;;22.70;41.60;;;;;;4996367;28;20477;-59
2022/09/25 12:09:28;;;;;;;1.90;1.23;;;22.70;41.60;;;;;;4994767;28;21224;-58
2022/09/25 12:12:23;;;;;;;1.00;0.90;;;22.70;41.60;;;;;;4998377;28;20951;-58
2022/09/25 12:15:24;;;;;;;1.10;1.00;;;22.70;41.60;;;;;;4995654;28;20546;-57
2022/09/25 12:18:03;;;;;;;1.00;1.00;;;22.70;41.60;;;;;;4999689;28;20457;-58
2022/09/25 12:20:57;;;;;;;0.90;0.90;;;22.70;41.60;;;;;;4996910;28;20476;-61
2022/09/25 12:23:31;;;;;;;1.10;1.00;;;22.70;41.60;;;;;;4995336;28;20460;-57
2022/09/25 12:26:12;;;;;;;1.30;1.20;;;22.70;41.60;;;;;;4996375;28;20935;-57
2022/09/25 12:29:02;;;;;;;1.03;0.90;;;22.70;41.60;;;;;;4994815;28;20460;-80
2022/09/25 12:31:58;;;;;;;1.10;1.00;;;22.70;41.60;;;;;;4997737;28;20466;-59
2022/09/25 12:34:49;;;;;;;1.17;1.07;;;22.70;41.60;;;;;;4994400;28;20488;-61
2022/09/25 12:37:40;;;;;;;1.17;1.07;;;22.60;41.50;;;;;;4999585;28;20527;-57
2022/09/25 12:40:33;;;;;;;4.03;1.00;;;22.70;41.60;;;;;;4997226;28;20520;-57
2022/09/25 12:43:24;;;;;;;1.10;1.00;;;22.70;41.60;;;;;;4985378;28;20473;-62
2022/09/25 12:46:15;;;;;;;1.30;1.20;;;22.60;41.50;;;;;;5002444;28;20448;-57
2022/09/25 12:48:43;;;;;;;1.10;1.00;;;22.60;41.50;;;;;;4996981;28;20446;-58
2022/09/25 12:51:20;;;;;;;1.00;0.93;;;22.70;41.60;;;;;;4996685;28;20872;-57
2022/09/25 12:53:50;;;;;;;1.10;1.00;;;22.70;41.60;;;;;;4999167;28;20859;-58
2022/09/25 12:56:40;;;;;;;0.90;0.90;;;22.60;41.50;;;;;;4999654;28;20546;-57
2022/09/25 12:59:15;;;;;;;1.13;1.03;;;22.70;41.60;;;;;;4996383;28;21010;-57
2022/09/25 13:01:51;;;;;;;1.10;1.00;;;22.60;41.50;;;;;;4997124;28;20981;-57
2022/09/25 13:04:34;;;;;;;1.00;0.90;;;22.60;41.50;;;;;;4997458;28;20448;-60
2022/09/25 13:07:24;;;;;;;1.20;1.10;;;22.60;41.60;;;;;;4999127;28;20461;-59
2022/09/25 13:09:49;;;;;;;0.90;0.90;;;22.60;41.50;;;;;;4997242;28;20458;-57
2022/09/25 13:12:32;;;;;;;1.03;0.93;;;22.60;41.50;;;;;;4996860;28;20524;-59
2022/09/25 13:15:07;;;;;;;1.20;1.10;;;22.60;41.50;;;;;;4989275;28;20696;-59
2022/09/25 13:17:33;;;;;;;0.90;0.90;;;22.60;41.50;;;;;;4998470;28;20963;-57
2022/09/25 13:20:27;;;;;;;1.20;1.10;;;22.60;41.50;;;;;;4995292;28;20450;-57
2022/09/25 13:23:05;;;;;;;1.67;1.00;;;22.60;41.50;;;;;;4997694;28;20972;-57
2022/09/25 13:25:45;;;;;;;1.00;0.90;;;22.60;41.50;;;;;;4998962;28;20449;-57
2022/09/25 13:28:19;;;;;;;1.20;1.10;;;22.60;41.50;;;;;;5000025;28;20707;-57
2022/09/25 13:31:21;;;;;;;1.10;1.00;;;22.60;41.50;;;;;;4997844;28;20501;-57
2022/09/25 13:33:51;;;;;;;0.97;0.93;;;22.60;41.60;;;;;;4940264;28;20436;-57
2022/09/25 13:36:24;;;;;;;1.20;1.10;;;22.60;41.50;;;;;;4997437;28;20484;-62
2022/09/25 13:42:14;;;;;;;0.93;0.90;;;22.60;41.50;;;;;;4996445;28;20476;-57